Hilltown, PA (18927)

10:56 PM EDT on August 22, 2014 (GMT -0400)
Hilltown Township | Change Station
CLOSE
Current Station
Personal Weather Station
Location: Perkasie, PA
Elevation: 656 ft
Nearby Weather Stations

Elev 656 ft 40.33 °N, 75.26 °W | Updated 15 seconds ago

Overcast
Overcast
66.4 °F
Feels Like 66.4 °F
N
0.0
Wind Variable Wind from ENE
Gusts 0.0 mph

Today
High -- | Low -- °F
--% Chance of Precip.
Yesterday
High -- | Low -- °F
Precip. -- in
6:18 AM 7:48 PM
Waning Crescent, 5% visible
Pressure 30.03 in
Visibility 10.0 miles
Clouds Few 5500 ft
Overcast 11000 ft
Dew Point 61 °F
Humidity 82%
Rainfall 0.00 in
Snow Depth Not available.
UV 0.0 out of 12
Pollen 7.40 out of 12
Air Quality Not available.
Flu Activity Not available.
METAR KDYL 230154Z AUTO 00000KT 10SM FEW055 OVC110 20/15 A3003 RMK AO2 SLP167 T02000150

More Conditions Fewer Conditions

Pressure 30.03 in
Visibility 10.0 miles
Clouds Few 5500 ft
Overcast 11000 ft
Dew Point 61 °F
Humidity 82%
Rainfall 0.00 in
Snow Depth Not available.
UV 0.0 out of 12
Pollen 7.40 out of 12
Air Quality Not available.
Flu Activity Not available.
METAR KDYL 230154Z AUTO 00000KT 10SM FEW055 OVC110 20/15 A3003 RMK AO2 SLP167 T02000150

More Conditions Fewer Conditions

10-Day Weather Forecast

Almanac

Astronomy

Aug. 22, 2014 Rise Set
Actual Time 6:18 AM EDT 7:48 PM EDT
Civil Twilight 5:50 AM EDT 8:16 PM EDT
Nautical Twilight 5:15 AM EDT 8:51 PM EDT
Astronomical Twilight 4:39 AM EDT 9:27 PM EDT
Moon 3:39 AM EDT (8/22) 5:55 PM EDT (8/22)
Length of Visible Light 14h 26m
Length of Day
13h 29m
Tomorrow will be 2m 28s shorter.
Waning Crescent, 5% of the Moon is Illuminated
Today
Waning Crescent
Aug 25
New
Sep 2
First Quarter
Sep 8
Full
Sep 15
Last Quarter

Today's Extremes

State Highs State Lows

Community

WunderPhotos

Upload Photos

1,746,348 photos uploaded!

WunderBlogs® & News

Nearby

Snow Depth

Station Depth Elevation
No new snow has been reported.

Earthquake Activity

City Distance Mag. Time & Date
No recent earthquake activity has been reported nearby.
Minimum magnitude displayed is 2.5.

Coastal Water Temperatures

Place Temperature
No Stations Reporting

Nearby Weather Stations